createdAt,value
2019-03-10T00:02:21.494Z,12.43
2019-03-10T00:04:55.049Z,18.57
2019-03-10T00:07:28.782Z,11.38
2019-03-10T00:10:02.433Z,17.27
2019-03-10T00:12:36.963Z,14.43
2019-03-10T00:15:12.370Z,16.00
2019-03-10T00:17:45.861Z,18.02
2019-03-10T00:20:19.100Z,14.23
2019-03-10T00:22:53.553Z,16.82
2019-03-10T00:25:27.049Z,10.28
2019-03-10T00:28:00.857Z,14.68
2019-03-10T00:30:34.246Z,16.35
2019-03-10T00:33:08.261Z,9.10
2019-03-10T00:35:41.490Z,15.00
2019-03-10T00:38:15.114Z,15.32
2019-03-10T00:41:02.409Z,15.98
2019-03-10T00:43:53.982Z,14.75
2019-03-10T00:46:42.136Z,17.20
2019-03-10T00:49:53.757Z,19.62
2019-03-10T00:52:39.952Z,24.55
2019-03-10T00:55:15.731Z,19.65
2019-03-10T00:57:50.615Z,19.15
2019-03-10T01:00:24.266Z,17.67
2019-03-10T01:02:58.650Z,16.45
2019-03-10T01:05:32.876Z,15.88
2019-03-10T01:08:06.458Z,19.15
2019-03-10T01:10:40.630Z,19.32
2019-03-10T01:13:14.086Z,23.80
2019-03-10T01:15:47.859Z,22.02
2019-03-10T01:18:21.807Z,18.57
2019-03-10T01:20:58.557Z,15.10
2019-03-10T01:23:32.483Z,19.42
2019-03-10T01:26:06.312Z,24.80
2019-03-10T01:28:40.081Z,18.70
2019-03-10T01:31:39.030Z,18.70
2019-03-10T01:34:32.102Z,19.27
2019-03-10T01:37:09.048Z,23.05
2019-03-10T01:39:44.439Z,21.87
2019-03-10T01:42:21.837Z,19.23
2019-03-10T01:44:55.097Z,26.10
2019-03-10T01:47:33.353Z,23.20
2019-03-10T01:50:09.105Z,24.43
2019-03-10T01:52:42.954Z,22.50
2019-03-10T01:55:16.872Z,22.35
2019-03-10T01:57:51.677Z,22.90
2019-03-10T02:00:27.304Z,21.37
2019-03-10T02:03:08.573Z,25.02
2019-03-10T02:05:44.852Z,22.97
2019-03-10T02:08:24.485Z,22.35
2019-03-10T02:10:57.882Z,27.67
2019-03-10T02:13:31.179Z,20.60
2019-03-10T02:16:04.850Z,14.40
2019-03-10T02:18:39.023Z,23.22
2019-03-10T02:21:12.753Z,24.20
2019-03-10T02:23:46.078Z,26.87
2019-03-10T02:26:19.807Z,20.85
2019-03-10T02:28:53.783Z,29.90
2019-03-10T02:31:27.664Z,23.83
2019-03-10T02:34:01.342Z,18.40
2019-03-10T02:36:35.665Z,32.70
2019-03-10T02:39:09.494Z,29.20
2019-03-10T02:41:43.465Z,23.60
2019-03-10T02:44:16.952Z,31.05
2019-03-10T02:46:50.551Z,30.88
2019-03-10T02:49:25.374Z,30.02
2019-03-10T02:51:59.180Z,27.77
2019-03-10T02:54:32.650Z,34.27
2019-03-10T02:57:08.203Z,33.15
2019-03-10T02:59:42.124Z,28.87
2019-03-10T03:02:16.805Z,31.73
2019-03-10T03:04:50.041Z,24.70
2019-03-10T03:07:24.235Z,13.95
2019-03-10T03:09:57.764Z,26.20
2019-03-10T03:12:35.140Z,20.75
2019-03-10T03:15:09.944Z,28.47
2019-03-10T03:17:43.521Z,26.17
2019-03-10T03:20:16.926Z,16.52
2019-03-10T03:22:50.792Z,22.07
2019-03-10T03:25:24.188Z,14.78
2019-03-10T03:27:57.981Z,19.80
2019-03-10T03:30:50.990Z,35.30
2019-03-10T03:33:27.541Z,32.17
2019-03-10T03:36:05.800Z,23.02
2019-03-10T03:38:45.213Z,25.68
2019-03-10T03:44:17.025Z,30.48
2019-03-10T03:46:53.571Z,35.75
2019-03-10T03:49:32.548Z,26.17
2019-03-10T03:52:06.650Z,24.98
2019-03-10T03:54:40.381Z,25.32
2019-03-10T03:57:14.499Z,20.08
2019-03-10T03:59:48.408Z,20.50
2019-03-10T04:02:30.815Z,39.55
2019-03-10T04:04:58.099Z,30.50
2019-03-10T04:07:31.662Z,34.78
2019-03-10T04:10:06.139Z,22.93
2019-03-10T04:12:39.622Z,31.73
2019-03-10T04:15:15.863Z,31.07
2019-03-10T04:17:49.216Z,17.62
2019-03-10T04:20:23.348Z,25.57
2019-03-10T04:22:56.612Z,24.23
2019-03-10T04:25:31.268Z,16.40
2019-03-10T04:28:07.780Z,18.87
2019-03-10T04:30:41.950Z,25.30
2019-03-10T04:33:15.794Z,18.90
2019-03-10T04:35:50.486Z,26.12
2019-03-10T04:38:24.000Z,16.60
2019-03-10T04:40:58.106Z,30.57
2019-03-10T04:43:31.803Z,29.67
2019-03-10T04:46:07.722Z,29.90
2019-03-10T04:48:41.655Z,29.98
2019-03-10T04:51:15.725Z,33.00
2019-03-10T04:53:51.448Z,30.17
2019-03-10T04:56:35.345Z,30.05
2019-03-10T04:59:11.418Z,31.20
2019-03-10T05:01:45.264Z,15.80
2019-03-10T05:04:19.762Z,22.13
2019-03-10T05:06:57.514Z,24.18
2019-03-10T05:09:29.790Z,27.67
2019-03-10T05:12:04.512Z,23.47
2019-03-10T05:14:44.893Z,28.05
2019-03-10T05:17:18.133Z,29.65
2019-03-10T05:19:51.872Z,29.25
2019-03-10T05:22:25.140Z,22.40
2019-03-10T05:24:59.127Z,25.40
2019-03-10T05:27:32.460Z,22.85
2019-03-10T05:30:06.098Z,26.12
2019-03-10T05:32:39.527Z,29.65
2019-03-10T05:35:13.563Z,25.62
2019-03-10T05:37:46.837Z,30.52
2019-03-10T05:40:20.944Z,23.45
2019-03-10T05:42:54.686Z,24.12
2019-03-10T05:45:28.421Z,29.42
2019-03-10T05:48:01.795Z,30.70
2019-03-10T05:50:35.600Z,35.52
2019-03-10T05:53:09.320Z,29.10
2019-03-10T05:55:43.117Z,30.15
2019-03-10T05:58:16.683Z,27.90
2019-03-10T06:00:50.616Z,35.00
2019-03-10T06:03:24.142Z,32.65
2019-03-10T06:06:04.598Z,30.92
2019-03-10T06:08:33.029Z,32.75
2019-03-10T06:11:07.419Z,35.48
2019-03-10T06:13:40.613Z,33.80
2019-03-10T06:16:14.038Z,45.08
2019-03-10T06:18:47.449Z,33.55
2019-03-10T06:21:21.235Z,34.35
2019-03-10T06:23:54.949Z,35.20
2019-03-10T06:26:28.832Z,36.60
2019-03-10T06:29:02.453Z,40.88
2019-03-10T06:31:35.917Z,28.12
2019-03-10T06:34:09.266Z,33.80
2019-03-10T06:36:43.489Z,26.80
2019-03-10T06:39:16.784Z,28.62
2019-03-10T06:41:50.659Z,32.55
2019-03-10T06:44:24.691Z,26.77
2019-03-10T06:47:15.056Z,30.30
2019-03-10T06:49:36.990Z,31.37
2019-03-10T06:52:12.254Z,28.27
2019-03-10T06:54:47.343Z,33.45
2019-03-10T06:57:21.420Z,31.37
2019-03-10T06:59:54.831Z,35.08
2019-03-10T07:05:28.017Z,29.18
2019-03-10T07:08:03.449Z,29.40
2019-03-10T07:10:37.477Z,35.33
2019-03-10T07:13:11.500Z,31.35
2019-03-10T07:15:44.872Z,34.35
2019-03-10T07:18:18.568Z,26.95
2019-03-10T07:20:58.008Z,27.70
2019-03-10T07:23:33.551Z,32.27
2019-03-10T07:26:09.434Z,24.15
2019-03-10T07:28:47.049Z,29.12
2019-03-10T07:31:26.677Z,30.75
2019-03-10T07:34:16.360Z,30.10
2019-03-10T07:36:57.611Z,32.33
2019-03-10T07:39:50.649Z,20.10
2019-03-10T07:42:29.392Z,34.48
2019-03-10T07:45:05.467Z,33.38
2019-03-10T07:47:54.560Z,31.87
2019-03-10T07:50:32.176Z,37.98
2019-03-10T07:53:18.784Z,29.72
2019-03-10T07:55:53.438Z,30.88
2019-03-10T07:58:33.941Z,28.85
2019-03-10T08:01:16.311Z,30.45
2019-03-10T08:03:50.985Z,37.10
2019-03-10T08:06:29.348Z,27.98
2019-03-10T08:09:10.120Z,24.67
2019-03-10T08:11:46.375Z,34.73
2019-03-10T08:14:21.775Z,30.85
2019-03-10T08:17:17.294Z,35.78
2019-03-10T08:20:19.877Z,32.83
2019-03-10T08:22:56.135Z,38.70
2019-03-10T08:25:46.606Z,33.53
2019-03-10T08:28:33.696Z,33.50
2019-03-10T08:31:17.220Z,35.75
2019-03-10T08:34:03.714Z,33.10
2019-03-10T08:36:44.238Z,36.63
2019-03-10T08:39:33.428Z,41.68
2019-03-10T08:42:20.905Z,33.48
2019-03-10T08:45:02.952Z,37.93
2019-03-10T08:47:46.931Z,37.50
2019-03-10T08:50:37.223Z,35.33
2019-03-10T08:53:18.741Z,34.05
2019-03-10T08:55:55.109Z,36.00
2019-03-10T08:58:54.772Z,39.03
2019-03-10T09:01:54.469Z,41.08
2019-03-10T09:04:56.757Z,39.88
2019-03-10T09:07:40.617Z,29.87
2019-03-10T09:10:18.977Z,32.17
2019-03-10T09:13:14.726Z,33.55
2019-03-10T09:16:07.702Z,32.48
2019-03-10T09:18:42.384Z,41.05
2019-03-10T09:21:22.671Z,36.45
2019-03-10T09:23:57.348Z,37.23
2019-03-10T09:26:37.684Z,35.52
2019-03-10T09:29:28.635Z,37.67
2019-03-10T09:32:10.995Z,39.05
2019-03-10T09:34:47.972Z,37.90
2019-03-10T09:37:22.368Z,37.23
2019-03-10T09:39:57.272Z,44.00
2019-03-10T09:42:48.124Z,42.25
2019-03-10T09:45:34.988Z,35.70
2019-03-10T09:48:15.232Z,39.85
2019-03-10T09:50:59.382Z,40.35
2019-03-10T09:53:41.265Z,35.88
2019-03-10T09:56:16.310Z,36.83
2019-03-10T09:58:50.842Z,37.00
2019-03-10T10:01:25.329Z,37.60
2019-03-10T10:04:05.749Z,38.75
2019-03-10T10:06:41.351Z,39.48
2019-03-10T10:09:24.987Z,39.15
2019-03-10T10:12:12.689Z,40.58
2019-03-10T10:14:44.022Z,45.03
2019-03-10T10:17:25.169Z,37.67
2019-03-10T10:19:59.708Z,42.27
2019-03-10T10:22:41.110Z,45.55
2019-03-10T10:25:16.115Z,47.35
2019-03-10T10:28:12.441Z,45.28
2019-03-10T10:30:56.604Z,44.65
2019-03-10T10:33:37.160Z,44.53
2019-03-10T10:36:20.486Z,38.00
2019-03-10T10:38:58.656Z,50.23
2019-03-10T10:41:36.111Z,50.92
2019-03-10T10:44:13.839Z,45.80
2019-03-10T10:46:53.917Z,48.10
2019-03-10T10:49:44.670Z,39.38
2019-03-10T10:52:35.337Z,44.03
2019-03-10T10:55:12.278Z,46.20
2019-03-10T10:57:47.583Z,42.85
2019-03-10T11:00:38.627Z,40.03
2019-03-10T11:03:20.533Z,46.65
2019-03-10T11:06:07.668Z,46.63
2019-03-10T11:08:48.192Z,40.45
2019-03-10T11:11:25.541Z,45.85
2019-03-10T11:14:15.778Z,50.00
2019-03-10T11:16:56.194Z,43.33
2019-03-10T11:30:36.011Z,49.77
2019-03-10T11:33:19.876Z,52.90
2019-03-10T11:36:11.078Z,61.20
2019-03-10T11:38:49.384Z,57.85
2019-03-10T11:41:33.427Z,79.20
2019-03-10T11:44:01.141Z,85.22
2019-03-10T11:46:43.942Z,86.28
2019-03-10T11:49:19.299Z,178.97
2019-03-10T11:51:57.864Z,124.05
2019-03-10T11:54:42.119Z,108.22
2019-03-10T11:57:29.119Z,166.00
2019-03-10T12:00:09.839Z,137.40
2019-03-10T12:02:48.917Z,157.47
2019-03-10T12:05:30.110Z,90.75
2019-03-10T12:08:17.172Z,125.42
2019-03-10T12:10:50.873Z,132.35
2019-03-10T12:13:27.150Z,111.25
2019-03-10T12:16:00.879Z,86.10
2019-03-10T12:18:34.686Z,101.87
2019-03-10T12:21:08.531Z,91.60
2019-03-10T12:23:43.708Z,78.20
2019-03-10T12:26:18.109Z,100.15
2019-03-10T12:28:52.002Z,82.97
2019-03-10T12:31:25.902Z,88.05
2019-03-10T12:33:59.770Z,86.32
2019-03-10T12:36:36.608Z,104.35
2019-03-10T12:39:10.783Z,91.60
2019-03-10T12:41:44.780Z,94.17
2019-03-10T12:44:18.677Z,123.33
2019-03-10T12:46:54.304Z,115.30
2019-03-10T12:49:29.345Z,111.60
2019-03-10T12:52:03.196Z,96.85
2019-03-10T12:54:36.621Z,120.65
2019-03-10T12:57:10.456Z,96.67
2019-03-10T12:59:44.226Z,103.42
2019-03-10T13:02:20.047Z,99.15
2019-03-10T13:04:54.153Z,94.75
2019-03-10T13:07:27.866Z,96.67
2019-03-10T13:10:01.280Z,103.32
2019-03-10T13:12:48.107Z,115.03
2019-03-10T13:15:22.006Z,111.25
2019-03-10T13:17:55.861Z,119.28
2019-03-10T13:20:29.820Z,118.22
2019-03-10T13:23:04.026Z,117.80
2019-03-10T13:25:37.347Z,132.25
2019-03-10T13:28:11.146Z,119.97
2019-03-10T13:30:45.071Z,120.55
2019-03-10T13:33:18.906Z,115.55
2019-03-10T13:35:53.402Z,109.12
2019-03-10T13:38:27.653Z,121.87
2019-03-10T13:41:02.555Z,114.12
2019-03-10T13:43:37.183Z,108.97
2019-03-10T13:46:10.857Z,110.00
2019-03-10T13:48:44.823Z,97.57
2019-03-10T13:51:18.064Z,104.85
2019-03-10T13:53:51.639Z,99.60
2019-03-10T13:56:27.264Z,100.55
2019-03-10T13:59:00.639Z,103.85
2019-03-10T14:01:34.387Z,117.95
2019-03-10T14:04:08.638Z,96.28
2019-03-10T14:06:41.882Z,100.12
2019-03-10T14:09:15.377Z,100.53
2019-03-10T14:11:50.631Z,104.87
2019-03-10T14:14:25.152Z,106.92
2019-03-10T14:16:58.436Z,116.12
2019-03-10T14:19:32.096Z,106.70
2019-03-10T14:22:05.816Z,102.82
2019-03-10T14:24:40.009Z,104.92
2019-03-10T14:27:13.582Z,120.53
2019-03-10T14:29:47.843Z,102.92
2019-03-10T14:32:21.783Z,105.12
2019-03-10T14:34:56.606Z,101.67
2019-03-10T14:37:31.534Z,122.07
2019-03-10T14:40:05.635Z,106.60
2019-03-10T14:42:38.989Z,124.00
2019-03-10T14:45:19.209Z,121.22
2019-03-10T14:47:52.728Z,112.15
2019-03-10T14:50:26.612Z,128.78
2019-03-10T14:53:00.111Z,120.85
2019-03-10T14:55:34.654Z,108.30
2019-03-10T14:58:08.688Z,121.87
2019-03-10T15:00:42.787Z,128.35
2019-03-10T15:03:16.235Z,136.95
2019-03-10T15:05:50.371Z,125.12
2019-03-10T15:08:25.429Z,117.20
2019-03-10T15:11:00.483Z,122.42
2019-03-10T15:13:35.141Z,117.50
2019-03-10T15:16:09.245Z,120.20
2019-03-10T15:18:42.917Z,126.25
2019-03-10T15:21:19.304Z,124.30
2019-03-10T15:23:51.104Z,123.10
2019-03-10T15:26:24.869Z,123.62
2019-03-10T15:28:59.084Z,122.67
2019-03-10T15:31:32.786Z,117.15
2019-03-10T15:34:06.511Z,129.32
2019-03-10T15:36:42.450Z,126.97
2019-03-10T15:39:17.658Z,136.95
2019-03-10T15:41:52.108Z,123.80
2019-03-10T15:44:25.938Z,120.40
2019-03-10T15:46:59.968Z,120.20
2019-03-10T15:49:34.716Z,115.57
2019-03-10T15:52:09.088Z,122.25
2019-03-10T15:54:42.388Z,120.15
2019-03-10T15:57:16.044Z,125.40
2019-03-10T15:59:49.519Z,121.40
2019-03-10T16:02:23.746Z,123.38
2019-03-10T16:04:57.435Z,141.73
2019-03-10T16:07:30.987Z,121.17
2019-03-10T16:10:08.223Z,129.75
2019-03-10T16:12:42.766Z,130.72
2019-03-10T16:15:20.565Z,117.30
2019-03-10T16:17:54.527Z,129.63
2019-03-10T16:20:28.143Z,126.27
2019-03-10T16:23:02.305Z,122.00
2019-03-10T16:25:35.729Z,121.45
2019-03-10T16:28:09.586Z,130.97
2019-03-10T16:30:42.974Z,128.10
2019-03-10T16:33:16.695Z,138.45
2019-03-10T16:35:50.421Z,122.02
2019-03-10T16:38:24.055Z,118.82
2019-03-10T16:40:57.947Z,125.58
2019-03-10T16:43:32.046Z,132.67
2019-03-10T16:46:05.753Z,126.80
2019-03-10T16:48:39.705Z,124.62
2019-03-10T16:51:13.275Z,128.78
2019-03-10T16:53:47.115Z,117.00
2019-03-10T16:56:21.491Z,123.02
2019-03-10T16:58:56.584Z,126.58
2019-03-10T17:01:29.800Z,122.15
2019-03-10T17:04:03.415Z,120.70
2019-03-10T17:06:38.026Z,122.82
2019-03-10T17:09:18.995Z,114.97
2019-03-10T17:11:52.597Z,122.53
2019-03-10T17:14:28.405Z,120.90
2019-03-10T17:17:01.615Z,127.05
2019-03-10T17:19:35.005Z,122.37
2019-03-10T17:22:08.347Z,119.93
2019-03-10T17:24:42.215Z,115.37
2019-03-10T17:27:15.602Z,118.65
2019-03-10T17:29:49.323Z,115.90
2019-03-10T17:32:22.553Z,121.80
2019-03-10T17:34:56.287Z,123.20
2019-03-10T17:37:30.106Z,126.05
2019-03-10T17:40:03.925Z,124.12
2019-03-10T17:42:37.615Z,131.30
2019-03-10T17:45:14.148Z,111.83
2019-03-10T17:47:47.699Z,117.55
2019-03-10T17:50:21.377Z,114.25
2019-03-10T17:52:55.285Z,115.30
2019-03-10T17:55:29.171Z,129.50
2019-03-10T17:58:03.023Z,123.47
2019-03-10T18:00:39.160Z,132.25
2019-03-10T18:03:12.584Z,125.20
2019-03-10T18:05:46.551Z,127.60
2019-03-10T18:08:20.118Z,127.90
2019-03-10T18:10:53.581Z,117.95
2019-03-10T18:13:27.605Z,129.07
2019-03-10T18:16:01.035Z,120.33
2019-03-10T18:18:34.792Z,136.65
2019-03-10T18:21:10.482Z,119.25
2019-03-10T18:23:45.788Z,118.45
2019-03-10T18:26:19.224Z,119.80
2019-03-10T18:28:52.579Z,123.47
2019-03-10T18:31:26.132Z,112.77
2019-03-10T18:33:59.432Z,122.95
2019-03-10T18:36:33.133Z,112.00
2019-03-10T18:39:07.512Z,120.87
2019-03-10T18:41:41.526Z,124.58
2019-03-10T18:44:14.856Z,128.27
2019-03-10T18:46:48.207Z,120.53
2019-03-10T18:49:22.900Z,125.25
2019-03-10T18:51:56.599Z,120.85
2019-03-10T18:54:31.089Z,122.67
2019-03-10T18:57:04.664Z,121.30
2019-03-10T18:59:38.577Z,133.70
2019-03-10T19:02:12.199Z,124.65
2019-03-10T19:04:45.879Z,120.28
2019-03-10T19:07:19.235Z,130.43
2019-03-10T19:09:52.427Z,127.75
2019-03-10T19:12:25.819Z,170.55
2019-03-10T19:14:59.145Z,146.02
2019-03-10T19:17:32.651Z,142.98
2019-03-10T19:20:06.480Z,122.80
2019-03-10T19:22:40.243Z,144.87
2019-03-10T19:25:14.625Z,141.45
2019-03-10T19:27:48.333Z,140.30
2019-03-10T19:30:22.549Z,145.30
2019-03-10T19:32:56.852Z,120.30
2019-03-10T19:35:30.354Z,140.50
2019-03-10T19:38:04.693Z,132.45
2019-03-10T19:40:38.368Z,121.00
2019-03-10T19:43:11.848Z,137.03
2019-03-10T19:45:45.191Z,131.43
2019-03-10T19:48:18.908Z,136.88
2019-03-10T19:50:52.156Z,134.22
2019-03-10T19:53:25.886Z,133.72
2019-03-10T19:55:59.205Z,125.38
2019-03-10T19:58:32.943Z,141.82
2019-03-10T20:01:06.572Z,138.05
2019-03-10T20:03:40.307Z,150.20
2019-03-10T20:06:13.639Z,136.43
2019-03-10T20:08:47.120Z,129.60
2019-03-10T20:11:20.803Z,133.67
2019-03-10T20:13:54.547Z,134.47
2019-03-10T20:16:28.171Z,131.18
2019-03-10T20:19:01.993Z,143.97
2019-03-10T20:21:38.291Z,150.72
2019-03-10T20:24:12.267Z,144.75
2019-03-10T20:26:45.904Z,138.68
2019-03-10T20:29:19.386Z,138.65
2019-03-10T20:31:53.090Z,141.73
2019-03-10T20:34:26.468Z,139.65
2019-03-10T20:37:01.190Z,142.30
2019-03-10T20:39:36.395Z,134.32
2019-03-10T20:42:11.997Z,132.00
2019-03-10T20:44:45.296Z,133.82
2019-03-10T20:47:18.779Z,131.00
2019-03-10T20:49:52.500Z,121.13
2019-03-10T20:52:25.822Z,121.62
2019-03-10T20:54:59.536Z,128.78
2019-03-10T20:57:33.379Z,132.35
2019-03-10T21:00:07.997Z,122.30
2019-03-10T21:02:41.707Z,120.17
2019-03-10T21:05:15.542Z,139.75
2019-03-10T21:07:48.971Z,133.47
2019-03-10T21:10:23.019Z,127.25
2019-03-10T21:12:56.314Z,125.67
2019-03-10T21:15:29.959Z,128.80
2019-03-10T21:18:03.285Z,138.47
2019-03-10T21:20:36.719Z,136.90
2019-03-10T21:23:09.957Z,135.72
2019-03-10T21:25:43.778Z,129.03
2019-03-10T21:28:18.299Z,125.92
2019-03-10T21:30:52.004Z,122.82
2019-03-10T21:33:25.647Z,137.03
2019-03-10T21:36:00.480Z,141.73
2019-03-10T21:38:33.810Z,116.85
2019-03-10T21:41:14.007Z,143.28
2019-03-10T21:43:42.430Z,128.78
2019-03-10T21:46:16.243Z,121.30
2019-03-10T21:48:50.100Z,132.30
2019-03-10T21:51:23.512Z,123.25
2019-03-10T21:53:57.111Z,132.43
2019-03-10T21:56:31.286Z,140.57
2019-03-10T21:59:04.842Z,149.87
2019-03-10T22:01:38.607Z,130.50
2019-03-10T22:04:12.987Z,132.47
2019-03-10T22:06:46.432Z,140.70
2019-03-10T22:09:19.639Z,147.90
2019-03-10T22:11:53.489Z,150.75
2019-03-10T22:14:28.748Z,139.18
2019-03-10T22:17:02.712Z,160.67
2019-03-10T22:19:36.164Z,143.45
2019-03-10T22:22:09.861Z,141.40
2019-03-10T22:24:43.251Z,170.32
2019-03-10T22:27:16.971Z,147.20
2019-03-10T22:29:50.183Z,155.27
2019-03-10T22:32:23.782Z,153.23
2019-03-10T22:34:57.027Z,147.43
2019-03-10T22:37:30.746Z,165.10
2019-03-10T22:40:04.490Z,170.28
2019-03-10T22:42:39.851Z,156.12
2019-03-10T22:45:15.896Z,157.35
2019-03-10T22:47:49.310Z,146.95
2019-03-10T22:50:23.142Z,136.05
2019-03-10T22:52:56.527Z,131.35
2019-03-10T22:55:30.192Z,119.22
2019-03-10T22:58:03.612Z,118.30
2019-03-10T23:00:40.976Z,115.75
2019-03-10T23:03:16.727Z,142.85
2019-03-10T23:05:51.398Z,133.15
2019-03-10T23:08:25.258Z,110.05
2019-03-10T23:10:58.633Z,119.90
2019-03-10T23:13:32.156Z,128.72
2019-03-10T23:16:05.473Z,122.92
2019-03-10T23:18:39.187Z,130.27
2019-03-10T23:21:12.593Z,124.45
2019-03-10T23:23:46.880Z,122.82
2019-03-10T23:26:20.430Z,133.45
2019-03-10T23:28:55.195Z,133.80
2019-03-10T23:31:28.491Z,124.70
2019-03-10T23:34:01.951Z,126.40
2019-03-10T23:36:35.543Z,117.33
2019-03-10T23:39:09.728Z,125.55
2019-03-10T23:41:44.826Z,126.85
2019-03-10T23:44:18.971Z,127.47
2019-03-10T23:46:52.939Z,134.63
2019-03-10T23:49:26.796Z,141.20
2019-03-10T23:52:00.652Z,127.12
2019-03-10T23:54:34.116Z,126.42
2019-03-10T23:57:07.791Z,122.65
2019-03-10T23:59:41.469Z,120.08
